sensor_id;sensor_type;location;lat;lon;timestamp;temperature;humidity
48946;DHT22;34999;50.940;3.998;2023-06-22T00:01:28;18.90;51.20
48946;DHT22;34999;50.940;3.998;2023-06-22T00:03:57;18.90;56.30
48946;DHT22;34999;50.940;3.998;2023-06-22T00:06:25;18.80;55.50
48946;DHT22;34999;50.940;3.998;2023-06-22T00:08:53;18.80;54.20
48946;DHT22;34999;50.940;3.998;2023-06-22T00:11:23;18.70;56.10
48946;DHT22;34999;50.940;3.998;2023-06-22T00:13:51;18.70;54.00
48946;DHT22;34999;50.940;3.998;2023-06-22T00:16:20;18.70;58.20
48946;DHT22;34999;50.940;3.998;2023-06-22T00:18:48;18.70;74.10
48946;DHT22;34999;50.940;3.998;2023-06-22T00:21:16;18.60;70.60
48946;DHT22;34999;50.940;3.998;2023-06-22T00:23:47;18.60;74.60
48946;DHT22;34999;50.940;3.998;2023-06-22T00:26:15;18.60;76.40
48946;DHT22;34999;50.940;3.998;2023-06-22T00:28:45;18.50;71.10
48946;DHT22;34999;50.940;3.998;2023-06-22T00:31:14;18.50;78.60
48946;DHT22;34999;50.940;3.998;2023-06-22T00:33:42;18.50;89.10
48946;DHT22;34999;50.940;3.998;2023-06-22T00:36:11;18.50;93.40
48946;DHT22;34999;50.940;3.998;2023-06-22T00:38:43;18.40;91.20
48946;DHT22;34999;50.940;3.998;2023-06-22T00:41:11;18.40;90.60
48946;DHT22;34999;50.940;3.998;2023-06-22T00:43:39;18.30;88.00
48946;DHT22;34999;50.940;3.998;2023-06-22T00:46:10;18.20;87.40
48946;DHT22;34999;50.940;3.998;2023-06-22T00:48:40;18.20;85.20
48946;DHT22;34999;50.940;3.998;2023-06-22T00:51:11;18.20;90.60
48946;DHT22;34999;50.940;3.998;2023-06-22T00:53:39;18.10;90.90
48946;DHT22;34999;50.940;3.998;2023-06-22T00:56:07;18.10;92.50
48946;DHT22;34999;50.940;3.998;2023-06-22T00:58:39;18.10;94.90
48946;DHT22;34999;50.940;3.998;2023-06-22T01:01:09;18.10;95.60
48946;DHT22;34999;50.940;3.998;2023-06-22T01:03:38;18.10;95.10
48946;DHT22;34999;50.940;3.998;2023-06-22T01:06:08;18.10;99.90
48946;DHT22;34999;50.940;3.998;2023-06-22T01:08:44;18.10;99.90
48946;DHT22;34999;50.940;3.998;2023-06-22T01:11:17;18.10;99.90
48946;DHT22;34999;50.940;3.998;2023-06-22T01:13:54;18.10;99.90
48946;DHT22;34999;50.940;3.998;2023-06-22T01:16:29;18.00;98.50
48946;DHT22;34999;50.940;3.998;2023-06-22T01:19:01;18.00;99.90
48946;DHT22;34999;50.940;3.998;2023-06-22T01:21:33;18.00;99.90
48946;DHT22;34999;50.940;3.998;2023-06-22T01:24:15;17.90;99.90
48946;DHT22;34999;50.940;3.998;2023-06-22T01:26:54;17.90;99.90
48946;DHT22;34999;50.940;3.998;2023-06-22T01:29:27;17.90;99.90
48946;DHT22;34999;50.940;3.998;2023-06-22T01:31:57;17.80;99.90
48946;DHT22;34999;50.940;3.998;2023-06-22T01:34:25;17.80;99.90
48946;DHT22;34999;50.940;3.998;2023-06-22T01:36:54;17.80;99.90
48946;DHT22;34999;50.940;3.998;2023-06-22T01:39:24;17.70;99.90
48946;DHT22;34999;50.940;3.998;2023-06-22T01:41:53;17.70;99.90
48946;DHT22;34999;50.940;3.998;2023-06-22T01:44:22;17.60;99.90
48946;DHT22;34999;50.940;3.998;2023-06-22T01:46:52;17.60;99.90
48946;DHT22;34999;50.940;3.998;2023-06-22T01:49:21;17.60;99.90
48946;DHT22;34999;50.940;3.998;2023-06-22T01:51:49;17.60;99.90
48946;DHT22;34999;50.940;3.998;2023-06-22T01:54:17;17.50;99.90
48946;DHT22;34999;50.940;3.998;2023-06-22T01:56:46;17.50;99.90
48946;DHT22;34999;50.940;3.998;2023-06-22T01:59:24;17.40;99.90
48946;DHT22;34999;50.940;3.998;2023-06-22T02:01:59;17.50;99.90
48946;DHT22;34999;50.940;3.998;2023-06-22T02:04:35;17.40;99.90
48946;DHT22;34999;50.940;3.998;2023-06-22T02:07:10;17.40;99.90
48946;DHT22;34999;50.940;3.998;2023-06-22T02:09:43;17.40;99.90
48946;DHT22;34999;50.940;3.998;2023-06-22T02:12:15;17.40;99.90
48946;DHT22;34999;50.940;3.998;2023-06-22T02:14:45;17.40;99.90
48946;DHT22;34999;50.940;3.998;2023-06-22T02:17:18;17.40;99.90
48946;DHT22;34999;50.940;3.998;2023-06-22T02:19:46;17.30;99.90
48946;DHT22;34999;50.940;3.998;2023-06-22T02:22:14;17.30;99.90
48946;DHT22;34999;50.940;3.998;2023-06-22T02:24:43;17.20;99.90
48946;DHT22;34999;50.940;3.998;2023-06-22T02:27:11;17.20;99.90
48946;DHT22;34999;50.940;3.998;2023-06-22T02:29:39;17.20;99.90
48946;DHT22;34999;50.940;3.998;2023-06-22T02:32:08;17.10;99.90
48946;DHT22;34999;50.940;3.998;2023-06-22T02:34:38;17.10;99.90
48946;DHT22;34999;50.940;3.998;2023-06-22T02:37:06;17.10;99.90
48946;DHT22;34999;50.940;3.998;2023-06-22T02:39:35;17.10;99.90
48946;DHT22;34999;50.940;3.998;2023-06-22T02:42:04;17.10;99.90
48946;DHT22;34999;50.940;3.998;2023-06-22T02:44:32;17.10;99.90
48946;DHT22;34999;50.940;3.998;2023-06-22T02:47:01;17.10;99.90
48946;DHT22;34999;50.940;3.998;2023-06-22T02:49:29;17.10;99.90
48946;DHT22;34999;50.940;3.998;2023-06-22T02:51:58;17.10;99.90
48946;DHT22;34999;50.940;3.998;2023-06-22T02:54:27;17.20;99.90
48946;DHT22;34999;50.940;3.998;2023-06-22T02:56:55;17.10;99.90
48946;DHT22;34999;50.940;3.998;2023-06-22T02:59:23;17.10;99.90
48946;DHT22;34999;50.940;3.998;2023-06-22T03:01:52;17.00;99.90
48946;DHT22;34999;50.940;3.998;2023-06-22T03:04:20;17.00;99.90
48946;DHT22;34999;50.940;3.998;2023-06-22T03:06:48;17.00;99.90
48946;DHT22;34999;50.940;3.998;2023-06-22T03:09:20;17.00;99.90
48946;DHT22;34999;50.940;3.998;2023-06-22T03:11:48;17.00;99.90
48946;DHT22;34999;50.940;3.998;2023-06-22T03:14:16;17.00;99.90
48946;DHT22;34999;50.940;3.998;2023-06-22T03:16:45;17.00;99.90
48946;DHT22;34999;50.940;3.998;2023-06-22T03:19:13;17.00;99.90
48946;DHT22;34999;50.940;3.998;2023-06-22T03:21:42;17.00;99.90
48946;DHT22;34999;50.940;3.998;2023-06-22T03:24:10;17.00;99.90
48946;DHT22;34999;50.940;3.998;2023-06-22T03:26:40;17.00;99.90
48946;DHT22;34999;50.940;3.998;2023-06-22T03:29:09;17.00;99.90
48946;DHT22;34999;50.940;3.998;2023-06-22T03:31:37;17.00;99.90
48946;DHT22;34999;50.940;3.998;2023-06-22T03:34:05;16.90;99.90
48946;DHT22;34999;50.940;3.998;2023-06-22T03:36:34;16.90;99.90
48946;DHT22;34999;50.940;3.998;2023-06-22T03:39:02;16.80;99.90
48946;DHT22;34999;50.940;3.998;2023-06-22T03:41:31;16.80;99.90
48946;DHT22;34999;50.940;3.998;2023-06-22T03:44:01;16.80;99.90
48946;DHT22;34999;50.940;3.998;2023-06-22T03:46:29;16.80;99.90
48946;DHT22;34999;50.940;3.998;2023-06-22T03:48:57;16.80;99.90
48946;DHT22;34999;50.940;3.998;2023-06-22T03:51:25;16.90;99.90
48946;DHT22;34999;50.940;3.998;2023-06-22T03:53:55;16.90;99.90
48946;DHT22;34999;50.940;3.998;2023-06-22T03:56:23;16.90;99.90
48946;DHT22;34999;50.940;3.998;2023-06-22T03:58:51;16.90;99.90
48946;DHT22;34999;50.940;3.998;2023-06-22T04:01:21;16.90;99.90
48946;DHT22;34999;50.940;3.998;2023-06-22T04:03:49;16.90;99.90
48946;DHT22;34999;50.940;3.998;2023-06-22T04:06:18;17.00;99.90
48946;DHT22;34999;50.940;3.998;2023-06-22T04:08:46;17.00;99.90
48946;DHT22;34999;50.940;3.998;2023-06-22T04:11:18;17.00;99.90
48946;DHT22;34999;50.940;3.998;2023-06-22T04:13:46;17.10;99.90
48946;DHT22;34999;50.940;3.998;2023-06-22T04:16:15;17.10;99.90
48946;DHT22;34999;50.940;3.998;2023-06-22T04:18:45;17.10;99.90
48946;DHT22;34999;50.940;3.998;2023-06-22T04:21:13;17.10;99.90
48946;DHT22;34999;50.940;3.998;2023-06-22T04:23:42;17.20;99.90
48946;DHT22;34999;50.940;3.998;2023-06-22T04:26:11;17.20;99.90
48946;DHT22;34999;50.940;3.998;2023-06-22T04:28:40;17.20;99.90
48946;DHT22;34999;50.940;3.998;2023-06-22T04:31:08;17.30;99.90
48946;DHT22;34999;50.940;3.998;2023-06-22T04:33:36;17.30;99.90
48946;DHT22;34999;50.940;3.998;2023-06-22T04:36:09;17.30;99.90
48946;DHT22;34999;50.940;3.998;2023-06-22T04:38:40;17.40;99.90
48946;DHT22;34999;50.940;3.998;2023-06-22T04:41:09;17.40;99.90
48946;DHT22;34999;50.940;3.998;2023-06-22T04:43:51;17.40;99.90
48946;DHT22;34999;50.940;3.998;2023-06-22T04:46:21;17.50;99.90
48946;DHT22;34999;50.940;3.998;2023-06-22T04:48:49;17.50;99.90
48946;DHT22;34999;50.940;3.998;2023-06-22T04:51:19;17.50;99.90
48946;DHT22;34999;50.940;3.998;2023-06-22T04:53:48;17.60;99.90
48946;DHT22;34999;50.940;3.998;2023-06-22T04:56:16;17.60;99.90
48946;DHT22;34999;50.940;3.998;2023-06-22T04:58:45;17.70;99.90
48946;DHT22;34999;50.940;3.998;2023-06-22T05:01:13;17.80;99.90
48946;DHT22;34999;50.940;3.998;2023-06-22T05:03:41;17.90;99.90
48946;DHT22;34999;50.940;3.998;2023-06-22T05:06:11;18.00;99.90
48946;DHT22;34999;50.940;3.998;2023-06-22T05:08:42;18.10;99.90
48946;DHT22;34999;50.940;3.998;2023-06-22T05:11:10;18.20;99.90
48946;DHT22;34999;50.940;3.998;2023-06-22T05:13:39;18.20;99.90
48946;DHT22;34999;50.940;3.998;2023-06-22T05:16:07;18.30;99.90
48946;DHT22;34999;50.940;3.998;2023-06-22T05:18:35;18.40;99.90
48946;DHT22;34999;50.940;3.998;2023-06-22T05:21:04;18.40;99.90
48946;DHT22;34999;50.940;3.998;2023-06-22T05:23:32;18.40;99.90
48946;DHT22;34999;50.940;3.998;2023-06-22T05:26:02;18.40;99.90
48946;DHT22;34999;50.940;3.998;2023-06-22T05:28:30;18.50;99.90
48946;DHT22;34999;50.940;3.998;2023-06-22T05:30:58;18.50;99.60
48946;DHT22;34999;50.940;3.998;2023-06-22T05:33:27;18.50;99.50
48946;DHT22;34999;50.940;3.998;2023-06-22T05:35:55;18.60;99.10
48946;DHT22;34999;50.940;3.998;2023-06-22T05:38:23;18.60;98.60
48946;DHT22;34999;50.940;3.998;2023-06-22T05:40:51;18.70;98.20
48946;DHT22;34999;50.940;3.998;2023-06-22T05:43:21;18.70;99.90
48946;DHT22;34999;50.940;3.998;2023-06-22T05:45:50;18.80;99.90
48946;DHT22;34999;50.940;3.998;2023-06-22T05:48:18;18.80;99.90
48946;DHT22;34999;50.940;3.998;2023-06-22T05:50:46;18.90;99.90
48946;DHT22;34999;50.940;3.998;2023-06-22T05:53:14;19.00;99.90
48946;DHT22;34999;50.940;3.998;2023-06-22T05:55:43;19.10;99.20
48946;DHT22;34999;50.940;3.998;2023-06-22T05:58:11;19.10;96.90
48946;DHT22;34999;50.940;3.998;2023-06-22T06:00:41;19.20;97.10
48946;DHT22;34999;50.940;3.998;2023-06-22T06:03:10;19.20;93.80
48946;DHT22;34999;50.940;3.998;2023-06-22T06:05:41;19.30;92.10
48946;DHT22;34999;50.940;3.998;2023-06-22T06:08:10;19.30;92.00
48946;DHT22;34999;50.940;3.998;2023-06-22T06:10:39;19.40;91.10
48946;DHT22;34999;50.940;3.998;2023-06-22T06:13:07;19.40;90.00
48946;DHT22;34999;50.940;3.998;2023-06-22T06:15:35;19.40;88.80
48946;DHT22;34999;50.940;3.998;2023-06-22T06:18:05;19.50;90.50
48946;DHT22;34999;50.940;3.998;2023-06-22T06:20:34;19.50;85.40
48946;DHT22;34999;50.940;3.998;2023-06-22T06:23:02;19.60;96.00
48946;DHT22;34999;50.940;3.998;2023-06-22T06:25:30;19.70;92.20
48946;DHT22;34999;50.940;3.998;2023-06-22T06:27:59;19.80;93.00
48946;DHT22;34999;50.940;3.998;2023-06-22T06:30:27;19.90;93.10
48946;DHT22;34999;50.940;3.998;2023-06-22T06:32:56;19.90;94.80
48946;DHT22;34999;50.940;3.998;2023-06-22T06:35:26;20.00;92.50
48946;DHT22;34999;50.940;3.998;2023-06-22T06:37:55;20.10;86.30
48946;DHT22;34999;50.940;3.998;2023-06-22T06:40:23;20.20;90.00
48946;DHT22;34999;50.940;3.998;2023-06-22T06:42:52;20.30;78.20
48946;DHT22;34999;50.940;3.998;2023-06-22T06:45:22;20.30;76.30
48946;DHT22;34999;50.940;3.998;2023-06-22T06:47:51;20.40;80.60
48946;DHT22;34999;50.940;3.998;2023-06-22T06:50:20;20.40;81.60
48946;DHT22;34999;50.940;3.998;2023-06-22T06:52:50;20.50;77.50
48946;DHT22;34999;50.940;3.998;2023-06-22T06:55:18;20.50;71.60
48946;DHT22;34999;50.940;3.998;2023-06-22T06:57:47;20.50;63.20
48946;DHT22;34999;50.940;3.998;2023-06-22T07:00:17;20.50;60.80
48946;DHT22;34999;50.940;3.998;2023-06-22T07:02:46;20.50;65.90
48946;DHT22;34999;50.940;3.998;2023-06-22T07:05:16;20.60;63.30
48946;DHT22;34999;50.940;3.998;2023-06-22T07:07:44;20.60;60.60
48946;DHT22;34999;50.940;3.998;2023-06-22T07:10:14;20.60;62.80
48946;DHT22;34999;50.940;3.998;2023-06-22T07:12:43;20.60;67.70
48946;DHT22;34999;50.940;3.998;2023-06-22T07:15:11;20.60;65.90
48946;DHT22;34999;50.940;3.998;2023-06-22T07:17:40;20.60;69.00
48946;DHT22;34999;50.940;3.998;2023-06-22T07:20:10;20.60;77.40
48946;DHT22;34999;50.940;3.998;2023-06-22T07:22:40;20.70;79.40
48946;DHT22;34999;50.940;3.998;2023-06-22T07:25:09;20.70;78.30
48946;DHT22;34999;50.940;3.998;2023-06-22T07:27:46;20.70;82.00
48946;DHT22;34999;50.940;3.998;2023-06-22T07:30:15;20.80;77.70
48946;DHT22;34999;50.940;3.998;2023-06-22T07:32:43;20.80;81.80
48946;DHT22;34999;50.940;3.998;2023-06-22T07:35:11;20.90;73.70
48946;DHT22;34999;50.940;3.998;2023-06-22T07:37:40;21.00;68.80
48946;DHT22;34999;50.940;3.998;2023-06-22T07:40:09;21.00;69.50
48946;DHT22;34999;50.940;3.998;2023-06-22T07:42:38;21.10;65.40
48946;DHT22;34999;50.940;3.998;2023-06-22T07:45:08;21.10;65.00
48946;DHT22;34999;50.940;3.998;2023-06-22T07:47:37;21.10;65.70
48946;DHT22;34999;50.940;3.998;2023-06-22T07:50:06;21.10;60.20
48946;DHT22;34999;50.940;3.998;2023-06-22T07:52:34;21.10;62.60
48946;DHT22;34999;50.940;3.998;2023-06-22T07:55:03;21.10;63.60
48946;DHT22;34999;50.940;3.998;2023-06-22T07:57:31;21.20;60.30
48946;DHT22;34999;50.940;3.998;2023-06-22T08:00:05;21.20;64.90
48946;DHT22;34999;50.940;3.998;2023-06-22T08:02:41;21.20;57.70
48946;DHT22;34999;50.940;3.998;2023-06-22T08:05:10;21.20;61.10
48946;DHT22;34999;50.940;3.998;2023-06-22T08:07:48;21.30;64.00
48946;DHT22;34999;50.940;3.998;2023-06-22T08:10:17;21.30;56.60
48946;DHT22;34999;50.940;3.998;2023-06-22T08:12:46;21.40;50.00
48946;DHT22;34999;50.940;3.998;2023-06-22T08:15:14;21.40;48.80
48946;DHT22;34999;50.940;3.998;2023-06-22T08:17:44;21.50;53.00
48946;DHT22;34999;50.940;3.998;2023-06-22T08:20:13;21.50;53.80
48946;DHT22;34999;50.940;3.998;2023-06-22T08:22:42;21.50;47.40
48946;DHT22;34999;50.940;3.998;2023-06-22T08:25:11;21.50;54.60
48946;DHT22;34999;50.940;3.998;2023-06-22T08:27:40;21.60;48.70
48946;DHT22;34999;50.940;3.998;2023-06-22T08:30:09;21.60;44.10
48946;DHT22;34999;50.940;3.998;2023-06-22T08:32:39;21.60;42.30
48946;DHT22;34999;50.940;3.998;2023-06-22T08:35:10;21.60;42.30
48946;DHT22;34999;50.940;3.998;2023-06-22T08:37:38;21.60;53.30
48946;DHT22;34999;50.940;3.998;2023-06-22T08:40:08;21.60;49.60
48946;DHT22;34999;50.940;3.998;2023-06-22T08:42:39;21.60;48.60
48946;DHT22;34999;50.940;3.998;2023-06-22T08:45:10;21.60;46.90
48946;DHT22;34999;50.940;3.998;2023-06-22T08:47:38;21.60;38.70
48946;DHT22;34999;50.940;3.998;2023-06-22T08:50:10;21.60;52.40
48946;DHT22;34999;50.940;3.998;2023-06-22T08:52:40;21.60;50.00
48946;DHT22;34999;50.940;3.998;2023-06-22T08:55:09;21.60;50.70
48946;DHT22;34999;50.940;3.998;2023-06-22T08:57:38;21.60;51.70
48946;DHT22;34999;50.940;3.998;2023-06-22T09:00:08;21.60;51.50
48946;DHT22;34999;50.940;3.998;2023-06-22T09:02:45;21.60;48.20
48946;DHT22;34999;50.940;3.998;2023-06-22T09:05:15;21.70;49.00
48946;DHT22;34999;50.940;3.998;2023-06-22T09:07:44;21.60;53.10
48946;DHT22;34999;50.940;3.998;2023-06-22T09:10:13;21.60;49.00
48946;DHT22;34999;50.940;3.998;2023-06-22T09:12:45;21.60;49.50
48946;DHT22;34999;50.940;3.998;2023-06-22T09:15:13;21.60;52.80
48946;DHT22;34999;50.940;3.998;2023-06-22T09:17:44;21.60;64.20
48946;DHT22;34999;50.940;3.998;2023-06-22T09:20:16;21.60;59.40
48946;DHT22;34999;50.940;3.998;2023-06-22T09:22:44;21.50;75.30
48946;DHT22;34999;50.940;3.998;2023-06-22T09:25:13;21.50;83.50
48946;DHT22;34999;50.940;3.998;2023-06-22T09:27:42;21.50;76.60
48946;DHT22;34999;50.940;3.998;2023-06-22T09:30:10;21.40;80.20
48946;DHT22;34999;50.940;3.998;2023-06-22T09:32:39;21.30;78.60
48946;DHT22;34999;50.940;3.998;2023-06-22T09:35:08;21.30;90.50
48946;DHT22;34999;50.940;3.998;2023-06-22T09:37:41;21.30;88.20
48946;DHT22;34999;50.940;3.998;2023-06-22T09:40:10;21.20;78.20
48946;DHT22;34999;50.940;3.998;2023-06-22T09:42:52;21.20;83.90
48946;DHT22;34999;50.940;3.998;2023-06-22T09:45:21;21.20;90.40
48946;DHT22;34999;50.940;3.998;2023-06-22T09:47:49;21.20;80.80
48946;DHT22;34999;50.940;3.998;2023-06-22T09:50:18;21.20;83.80
48946;DHT22;34999;50.940;3.998;2023-06-22T09:52:48;21.20;93.70
48946;DHT22;34999;50.940;3.998;2023-06-22T09:55:21;21.20;98.10
48946;DHT22;34999;50.940;3.998;2023-06-22T09:57:50;21.20;99.90
48946;DHT22;34999;50.940;3.998;2023-06-22T10:00:18;21.10;99.90
48946;DHT22;34999;50.940;3.998;2023-06-22T10:02:47;21.10;99.90
48946;DHT22;34999;50.940;3.998;2023-06-22T10:05:19;21.10;99.90
48946;DHT22;34999;50.940;3.998;2023-06-22T10:07:48;21.10;99.90
48946;DHT22;34999;50.940;3.998;2023-06-22T10:10:17;21.10;99.90
48946;DHT22;34999;50.940;3.998;2023-06-22T10:12:47;20.90;99.90
48946;DHT22;34999;50.940;3.998;2023-06-22T10:15:16;20.70;99.90
48946;DHT22;34999;50.940;3.998;2023-06-22T10:17:45;20.70;99.90
48946;DHT22;34999;50.940;3.998;2023-06-22T10:20:13;20.50;99.90
48946;DHT22;34999;50.940;3.998;2023-06-22T10:22:43;20.40;99.90
48946;DHT22;34999;50.940;3.998;2023-06-22T10:25:14;20.30;99.90
48946;DHT22;34999;50.940;3.998;2023-06-22T10:27:42;20.30;99.90
48946;DHT22;34999;50.940;3.998;2023-06-22T10:30:12;20.40;99.90
48946;DHT22;34999;50.940;3.998;2023-06-22T10:33:00;20.40;99.90
48946;DHT22;34999;50.940;3.998;2023-06-22T10:35:28;20.30;99.90
48946;DHT22;34999;50.940;3.998;2023-06-22T10:37:57;20.30;99.90
48946;DHT22;34999;50.940;3.998;2023-06-22T10:40:27;20.30;99.90
48946;DHT22;34999;50.940;3.998;2023-06-22T10:46:36;20.20;99.90
48946;DHT22;34999;50.940;3.998;2023-06-22T10:49:04;20.00;99.90
48946;DHT22;34999;50.940;3.998;2023-06-22T10:51:33;19.90;99.90
48946;DHT22;34999;50.940;3.998;2023-06-22T10:54:01;19.70;99.90
48946;DHT22;34999;50.940;3.998;2023-06-22T10:56:32;19.60;99.90
48946;DHT22;34999;50.940;3.998;2023-06-22T10:59:01;19.50;99.90
48946;DHT22;34999;50.940;3.998;2023-06-22T11:01:29;19.40;99.90
48946;DHT22;34999;50.940;3.998;2023-06-22T11:04:03;19.30;99.90
48946;DHT22;34999;50.940;3.998;2023-06-22T11:06:32;19.30;99.90
48946;DHT22;34999;50.940;3.998;2023-06-22T11:09:00;19.30;99.90
48946;DHT22;34999;50.940;3.998;2023-06-22T11:11:51;19.30;99.90
48946;DHT22;34999;50.940;3.998;2023-06-22T11:14:21;19.30;99.90
48946;DHT22;34999;50.940;3.998;2023-06-22T11:16:49;19.30;99.90
48946;DHT22;34999;50.940;3.998;2023-06-22T11:19:18;19.10;99.90
48946;DHT22;34999;50.940;3.998;2023-06-22T11:21:46;19.10;99.90
48946;DHT22;34999;50.940;3.998;2023-06-22T11:24:15;19.10;99.90
48946;DHT22;34999;50.940;3.998;2023-06-22T11:26:44;19.10;99.90
48946;DHT22;34999;50.940;3.998;2023-06-22T11:29:13;19.20;99.90
48946;DHT22;34999;50.940;3.998;2023-06-22T11:31:58;19.30;99.90
48946;DHT22;34999;50.940;3.998;2023-06-22T11:34:26;19.30;99.90
48946;DHT22;34999;50.940;3.998;2023-06-22T11:36:55;19.40;99.90
48946;DHT22;34999;50.940;3.998;2023-06-22T11:39:23;19.40;99.90
48946;DHT22;34999;50.940;3.998;2023-06-22T11:42:07;19.30;99.90
48946;DHT22;34999;50.940;3.998;2023-06-22T11:44:37;19.20;99.90
48946;DHT22;34999;50.940;3.998;2023-06-22T11:47:06;19.20;99.90
48946;DHT22;34999;50.940;3.998;2023-06-22T11:49:34;19.20;99.90
48946;DHT22;34999;50.940;3.998;2023-06-22T11:52:03;19.10;99.90
48946;DHT22;34999;50.940;3.998;2023-06-22T11:54:31;19.00;99.90
48946;DHT22;34999;50.940;3.998;2023-06-22T11:57:00;19.00;99.90
48946;DHT22;34999;50.940;3.998;2023-06-22T11:59:29;19.00;99.90
48946;DHT22;34999;50.940;3.998;2023-06-22T12:01:58;19.00;99.90
48946;DHT22;34999;50.940;3.998;2023-06-22T12:04:27;19.00;99.90
48946;DHT22;34999;50.940;3.998;2023-06-22T12:06:55;19.00;99.90
48946;DHT22;34999;50.940;3.998;2023-06-22T12:13:04;18.90;99.90
48946;DHT22;34999;50.940;3.998;2023-06-22T12:22:22;18.90;99.90
48946;DHT22;34999;50.940;3.998;2023-06-22T12:24:51;18.90;99.90
48946;DHT22;34999;50.940;3.998;2023-06-22T12:27:19;18.90;99.90
48946;DHT22;34999;50.940;3.998;2023-06-22T12:29:47;18.90;99.90
48946;DHT22;34999;50.940;3.998;2023-06-22T12:32:15;18.90;99.90
48946;DHT22;34999;50.940;3.998;2023-06-22T12:34:44;18.90;99.90
48946;DHT22;34999;50.940;3.998;2023-06-22T12:37:13;18.90;99.90
48946;DHT22;34999;50.940;3.998;2023-06-22T12:39:44;18.90;99.90
48946;DHT22;34999;50.940;3.998;2023-06-22T12:42:12;18.90;99.90
48946;DHT22;34999;50.940;3.998;2023-06-22T12:44:41;18.90;99.90
48946;DHT22;34999;50.940;3.998;2023-06-22T12:47:09;18.90;99.90
48946;DHT22;34999;50.940;3.998;2023-06-22T12:53:18;18.80;99.90
48946;DHT22;34999;50.940;3.998;2023-06-22T12:59:29;18.70;99.90
48946;DHT22;34999;50.940;3.998;2023-06-22T13:01:57;18.60;99.90
48946;DHT22;34999;50.940;3.998;2023-06-22T13:04:26;18.50;99.90
48946;DHT22;34999;50.940;3.998;2023-06-22T13:06:54;18.50;99.90
48946;DHT22;34999;50.940;3.998;2023-06-22T13:09:25;18.50;99.90
48946;DHT22;34999;50.940;3.998;2023-06-22T13:11:53;18.50;99.90
48946;DHT22;34999;50.940;3.998;2023-06-22T13:14:22;18.50;99.90
48946;DHT22;34999;50.940;3.998;2023-06-22T13:16:51;18.50;99.90
48946;DHT22;34999;50.940;3.998;2023-06-22T13:19:20;18.50;99.90
48946;DHT22;34999;50.940;3.998;2023-06-22T13:21:48;18.40;99.90
48946;DHT22;34999;50.940;3.998;2023-06-22T13:35:22;18.40;99.90
48946;DHT22;34999;50.940;3.998;2023-06-22T13:37:51;18.50;99.90
48946;DHT22;34999;50.940;3.998;2023-06-22T13:40:19;18.50;99.90
48946;DHT22;34999;50.940;3.998;2023-06-22T13:42:47;18.50;99.90
48946;DHT22;34999;50.940;3.998;2023-06-22T13:48:57;18.40;99.90
48946;DHT22;34999;50.940;3.998;2023-06-22T13:51:26;18.50;99.90
48946;DHT22;34999;50.940;3.998;2023-06-22T13:53:55;18.50;99.90
48946;DHT22;34999;50.940;3.998;2023-06-22T13:56:25;18.50;99.90
48946;DHT22;34999;50.940;3.998;2023-06-22T13:58:54;18.50;99.90
48946;DHT22;34999;50.940;3.998;2023-06-22T14:01:22;18.50;99.90
48946;DHT22;34999;50.940;3.998;2023-06-22T14:03:51;18.50;99.90
48946;DHT22;34999;50.940;3.998;2023-06-22T14:06:19;18.50;99.90
48946;DHT22;34999;50.940;3.998;2023-06-22T14:08:49;18.50;99.90
48946;DHT22;34999;50.940;3.998;2023-06-22T14:11:18;18.50;99.90
48946;DHT22;34999;50.940;3.998;2023-06-22T14:13:46;18.50;99.90
48946;DHT22;34999;50.940;3.998;2023-06-22T14:16:15;18.50;99.90
48946;DHT22;34999;50.940;3.998;2023-06-22T14:18:44;18.50;99.90
48946;DHT22;34999;50.940;3.998;2023-06-22T14:21:13;18.50;99.90
48946;DHT22;34999;50.940;3.998;2023-06-22T14:23:41;18.60;99.90
48946;DHT22;34999;50.940;3.998;2023-06-22T14:26:16;18.60;99.90
48946;DHT22;34999;50.940;3.998;2023-06-22T14:28:45;18.60;99.90
48946;DHT22;34999;50.940;3.998;2023-06-22T14:31:16;18.60;99.90
48946;DHT22;34999;50.940;3.998;2023-06-22T14:33:46;18.60;99.90
48946;DHT22;34999;50.940;3.998;2023-06-22T14:36:15;18.70;99.90
48946;DHT22;34999;50.940;3.998;2023-06-22T14:38:45;18.70;99.90
48946;DHT22;34999;50.940;3.998;2023-06-22T14:41:15;18.80;99.90
48946;DHT22;34999;50.940;3.998;2023-06-22T14:43:45;18.80;99.90
48946;DHT22;34999;50.940;3.998;2023-06-22T14:46:15;18.80;99.90
48946;DHT22;34999;50.940;3.998;2023-06-22T14:48:43;18.90;99.90
48946;DHT22;34999;50.940;3.998;2023-06-22T14:51:12;19.00;99.90
48946;DHT22;34999;50.940;3.998;2023-06-22T14:53:44;19.00;99.90
48946;DHT22;34999;50.940;3.998;2023-06-22T14:56:15;19.00;99.90
48946;DHT22;34999;50.940;3.998;2023-06-22T14:58:43;19.00;99.90
48946;DHT22;34999;50.940;3.998;2023-06-22T15:01:14;19.10;99.90
48946;DHT22;34999;50.940;3.998;2023-06-22T15:03:42;19.10;99.90
48946;DHT22;34999;50.940;3.998;2023-06-22T15:06:11;19.10;99.90
48946;DHT22;34999;50.940;3.998;2023-06-22T15:08:39;19.20;99.90
48946;DHT22;34999;50.940;3.998;2023-06-22T15:11:08;19.20;99.90
48946;DHT22;34999;50.940;3.998;2023-06-22T15:13:40;19.20;99.90
48946;DHT22;34999;50.940;3.998;2023-06-22T15:16:09;19.20;99.90
48946;DHT22;34999;50.940;3.998;2023-06-22T15:18:37;19.20;99.90
48946;DHT22;34999;50.940;3.998;2023-06-22T15:21:07;19.20;99.90
48946;DHT22;34999;50.940;3.998;2023-06-22T15:23:36;19.20;99.90
48946;DHT22;34999;50.940;3.998;2023-06-22T15:26:04;19.20;99.90
48946;DHT22;34999;50.940;3.998;2023-06-22T15:28:33;19.20;99.90
48946;DHT22;34999;50.940;3.998;2023-06-22T15:31:06;19.20;99.90
48946;DHT22;34999;50.940;3.998;2023-06-22T15:33:34;19.20;99.90
48946;DHT22;34999;50.940;3.998;2023-06-22T15:36:04;19.30;99.90
48946;DHT22;34999;50.940;3.998;2023-06-22T15:38:33;19.30;99.90
48946;DHT22;34999;50.940;3.998;2023-06-22T15:41:02;19.30;99.90
48946;DHT22;34999;50.940;3.998;2023-06-22T15:43:30;19.30;99.90
48946;DHT22;34999;50.940;3.998;2023-06-22T15:45:58;19.40;99.90
48946;DHT22;34999;50.940;3.998;2023-06-22T15:48:28;19.50;99.90
48946;DHT22;34999;50.940;3.998;2023-06-22T15:54:04;19.60;99.90
48946;DHT22;34999;50.940;3.998;2023-06-22T15:56:36;19.60;99.90
48946;DHT22;34999;50.940;3.998;2023-06-22T15:59:04;19.60;99.90
48946;DHT22;34999;50.940;3.998;2023-06-22T16:01:33;19.80;99.90
48946;DHT22;34999;50.940;3.998;2023-06-22T16:04:03;19.80;99.90
48946;DHT22;34999;50.940;3.998;2023-06-22T16:06:31;19.90;99.90
48946;DHT22;34999;50.940;3.998;2023-06-22T16:09:00;20.00;99.90
48946;DHT22;34999;50.940;3.998;2023-06-22T16:11:28;20.10;99.90
48946;DHT22;34999;50.940;3.998;2023-06-22T16:13:56;20.10;99.90
48946;DHT22;34999;50.940;3.998;2023-06-22T16:16:24;20.20;99.90
48946;DHT22;34999;50.940;3.998;2023-06-22T16:18:53;20.40;99.90
48946;DHT22;34999;50.940;3.998;2023-06-22T16:21:22;20.40;99.90
48946;DHT22;34999;50.940;3.998;2023-06-22T16:23:51;20.50;99.90